Weather June 8, 2001 (Alaska)

DUAT Transaction 0806288   06/08/2001 2129Z

=== Outlook Route Briefing  Depart:PANC Arrive:PAFA
ST LAWRENCE IS AND WRN NORTON SOUND FK
CIGS BLW 010 OCNL VIS BLW 3SM BR/FG. NC.
.

===>CURRENT CONDITIONS<===

   SURFACE WEATHER OBSERVATIONS
METAR PANC 082053Z 31005KT 10SM SCT047 SCT250 14/08 A3007 RMK AO2 
     SLP182 T01440078 56014
METAR PALH 082053Z VRB05KT 10SM CLR 16/M01 A3008 RMK AO2 SLP188 
     T01561006 56013
METAR PAMR 082053Z VRB06KT 10SM CLR 16/06 A3007 RMK AO2 SLP182 
     T01610061 56015
PAED 082055Z COR 26009KT 80SM SCT045 17/03 A3007 RMK
     SLP183 8/200 9/400 56015 COR 2102
PAED 082055Z 26009KT 80SM SCT045 17/03 A3007 RMK SLP183
     8/200 9/400 86015
METAR PABV 082055Z AUTO 00000KT 10SM CLR 14/05 A3008 RMK AO1 57010
METAR PABV 082115Z AUTO 00000KT 10SM CLR 14/05 A3007 RMK AO1
METAR PAWS 082055Z AUTO 25005KT 10SM SCT039 BKN048 15/06 A3008 RMK 
     AO1 57010
METAR PAWS 082115Z AUTO 26005KT 10SM SCT041 BKN050 14/04 A3007 RMK 
     AO1
METAR PAUO 082050Z 36005KT 100SM  BKN060CU 17/10 A3007 
     RMK CU ALQDS  NOSPECI
METAR PAAQ 082053Z 10005KT 10SM SCT035 SCT090 15/08 A3005 RMK AO2 
     SLP177 T01500083 56017
IZY METAR NO CURRENT DATA
JVM METAR NO CURRENT DATA
METAR PATK 082053Z 27006KT 10SM FEW023 SCT055 15/03 A3007 RMK AO2 
     SLP185 T01500033 56015 $
IEC METAR NO CURRENT DATA
TTW METAR NO CURRENT DATA
METAR PAIN 082055Z AUTO 02004KT 10SM OVC060 12/M01 A3005 RMK AO1 
     57007
METAR PAIN 082115Z AUTO 03007KT 10SM OVC060 13/01 A3005 RMK AO1
METAR PAHV 082059Z 33005KT 35SM   BKN060  BKN120 14/05 
     A3005 RMK EST PASS OPN    OCCNL RA DROP NOSPECI
PAEI 082055Z 25005KT 30SM SCT040 BKN050 BKN140 14/04
     A3006 RMK SLP183 8/870 9/610 56010
PAFB 082055Z 23008KT 60SM BKN045 BKN070 BKN110 14/04
     A3005 RMK SLP177 8/570 9/520 56010
METAR PAFA 082053Z 23005KT 10SM SCT041 BKN080 BKN110 14/05 A3007 RMK 
     AO2 SLP187 T01390050 56007

   PILOT REPORTS
TKA UA /OV TKA260070(MYSTIC PASS)/TM 2025/FL060/TP 
     DHC3/SK SCT060-TOP070/WX FV99SM/WV 320010KT/TB NEG/RM 
     AMOS LKS-MT YENLO
HVI UA /OV HVI/TM 2106/FL040/TP PA18/SK BKN-OVC045/WX -SHRA/TB LGT
     OCNL MDT
FAI UA /OV FAI300015/TM 2011/FLUNKN/TP PA31/SK BKN-OVCUNKN-TOP060

===>FORECAST CONDITIONS<===

   TERMINAL FORECASTS
TAF PANC 081735Z 081818 VRB03KT P6SM SCT030 SCT080 TEMPO 1821
     FEW005
     FM2100 23010KT P6SM SCT030 SCT120
     FM2300 26015KT P6SM VCSH SCT030 SCT120
     FM0600 VRB03KT P6SM SCT120 TEMPO 1217 5SM BR SCT005
PAED 082020 32012KT 9999 SCT040 SCT140 SCT200 QNH3003INS
     BECMG 2122 22010G15KT 9999 VCSHRA SCT040 SCT090 SCT220 QNH3000INS
     BECMG 0809 VRB05KT 9999 NSW FEW050 FEW090 SCT220 QNH2995INS
     BECMG 1819 26012KT 9999 VCSHRA FEW045 SCT090 BKN200 QNH2990INS
     T19/02Z T05/12Z
TAF PAAQ 081735Z 081818 VRB03KT P6SM SCT035 SCT120 BECMG 2123
     23008KT
     FM2300 23008KT P6SM VCSH SCT035 BKN120
     FM0600 VRB03KT P6SM SCT120
TAF PATK 081735Z 081818 VRB03KT P6SM SCT035 BKN060
     FM2300 18010KT P6SM VCSH SCT035 BKN060
     FM0600 VRB03KT P6SM SCT060
PAEI 082020 VRB06KT 9999 BKN050 BKN140 QNH3003INS
     BECMG 2223 24010KT 9999 VCSHRA FEW050 SCT140 BKN200 QNH2998INS
     BECMG 1011 VRB06KT 9999 NSW FEW010 SCT050 BKN100 QNH2995INS
     T20/02Z T08/13Z
PAFB 082020 22010KT 9999 BKN045 BKN070 BKN110 QNH3002INS
     BECMG 2223 24012KT 9999 VCSHRA SCT045 SCT070 BKN200 QNH2997INS
     BECMG 1011 VRB06KT 9999 NSW FEW020 SCT070 BKN100 QNH2994INS
     T20/02Z T08/13Z
PAFA 081740Z 081818 25005KT P6SM SCT040 BKN070 BKN120
     TEMPO 1820 BKN040
     PROB30 0007 -SHRA BKN040CB
     TEMPO 1118 SCT070

   WINDS ALOFT FORECASTS

DATA BASED ON 081200Z    
VALID 090000Z   FOR USE 2100-0600Z. TEMPS NEG ABV 24000

FT  3000    6000    9000   12000   18000   24000  30000  34000  39000
ANC 3407 0309-01 0906-07 0910-13 0910-25 0712-36 081850 081953 081446
TKA 9900 9900+00 9900-07 1005-12 0914-24 0718-36 082150 082354 091347
HOM 3511 0409-02 0709-08 0806-13 0810-25 0914-37 091452 091351 081245
FAI 2508 2613-01 2405-05 9900-10 0714-22 0715-34 091650 081357 091149
FVM FD NO CURRENT DATA

DATA BASED ON 081200Z    
VALID 091200Z   FOR USE 0600-1700Z. TEMPS NEG ABV 24000

FT  3000    6000    9000   12000   18000   24000  30000  34000  39000
ANC 3610 0513+01 0709-05 0911-12 1211-24 1311-36 131150 121053 080747
TKA 0310 0613+01 0807-05 0907-12 1110-24 0911-36 091250 091354 080748
HOM 0112 0310+00 0407-07 0707-12 0906-24 1105-37 100851 090753 050746
FAI 2405 2505+00 9900-06 9900-11 0908-23 0711-35 071250 081355 110748
FVM FD NO CURRENT DATA

@

@

Ads by TOK2